Time;durP1;ratioP1;P1;durP2;ratioP2;P2;SDS_P1;SDS_P2;PMS_P1;PMS_P2;Temp;Humidity;BMP_temperature;BMP_pressure;BME280_temperature;BME280_humidity;BME280_pressure;Samples;Min_cycle;Max_cycle;Signal;HPM_P1;HPM_P2
2022/01/24 00:00:37;;;;;;;11.25;7.40;;;5.70;99.90;;;;;;5053078;28;20388;-43
2022/01/24 00:03:06;;;;;;;11.10;7.78;;;5.70;99.90;;;;;;5052063;28;20059;-44
2022/01/24 00:05:33;;;;;;;9.30;6.78;;;5.70;99.90;;;;;;5047097;28;20132;-41
2022/01/24 00:08:00;;;;;;;12.55;8.40;;;5.70;99.90;;;;;;5045022;28;20104;-43
2022/01/24 00:10:28;;;;;;;11.98;7.35;;;5.60;99.90;;;;;;5051555;28;20460;-43
2022/01/24 00:13:14;;;;;;;11.98;8.13;;;5.60;99.90;;;;;;5053027;28;20132;-43
2022/01/24 00:15:55;;;;;;;12.60;7.70;;;5.60;99.90;;;;;;5033479;28;20145;-43
2022/01/24 00:26:38;;;;;;;13.48;8.25;;;5.60;99.90;;;;;;5046000;28;20049;-43
2022/01/24 00:26:47;;;;;;;12.13;8.20;;;5.60;99.90;;;;;;5044823;28;20049;-44
2022/01/24 00:29:14;;;;;;;11.98;8.77;;;5.60;99.90;;;;;;5052521;28;20422;-44
2022/01/24 00:31:41;;;;;;;11.88;8.35;;;5.60;99.90;;;;;;5046180;28;20049;-43
2022/01/24 00:34:09;;;;;;;12.57;8.80;;;5.60;99.90;;;;;;5051085;28;20059;-41
2022/01/24 00:36:37;;;;;;;14.80;8.95;;;5.60;99.90;;;;;;5042732;28;20136;-44
2022/01/24 00:39:04;;;;;;;14.27;8.73;;;5.60;99.90;;;;;;5044774;28;20504;-44
2022/01/24 00:41:36;;;;;;;12.27;8.38;;;5.60;99.90;;;;;;5044177;28;20474;-43
2022/01/24 00:44:26;;;;;;;15.02;9.18;;;5.50;99.90;;;;;;5049364;28;20053;-43
2022/01/24 00:46:56;;;;;;;13.63;9.73;;;5.60;99.90;;;;;;5045067;28;20044;-42
2022/01/24 00:49:44;;;;;;;13.48;9.50;;;5.60;99.90;;;;;;5051923;28;20451;-43
2022/01/24 00:54:55;;;;;;;11.93;8.45;;;5.50;99.90;;;;;;5039861;28;20061;-44
2022/01/24 00:57:22;;;;;;;13.65;9.40;;;5.60;99.90;;;;;;5049386;28;20052;-43
2022/01/24 00:59:49;;;;;;;12.55;9.00;;;5.60;99.90;;;;;;5051039;28;20408;-43
2022/01/24 01:02:16;;;;;;;15.15;9.93;;;5.60;99.90;;;;;;5051735;28;20041;-44
2022/01/24 01:04:59;;;;;;;15.13;9.55;;;5.60;99.90;;;;;;5045988;28;20493;-43
2022/01/24 01:07:33;;;;;;;11.88;8.93;;;5.60;99.90;;;;;;5046545;28;21564;-42
2022/01/24 01:18:15;;;;;;;16.20;10.00;;;5.50;99.90;;;;;;5045308;28;20053;-42
2022/01/24 01:23:28;;;;;;;15.93;9.93;;;5.50;99.90;;;;;;5040491;28;20053;-42
2022/01/24 01:25:56;;;;;;;13.60;10.40;;;5.50;99.90;;;;;;5045063;28;20045;-42
2022/01/24 01:28:25;;;;;;;17.95;10.25;;;5.50;99.90;;;;;;5044337;28;20051;-42
2022/01/24 01:30:55;;;;;;;15.95;10.68;;;5.50;99.90;;;;;;5050515;28;20195;-42
2022/01/24 01:33:31;;;;;;;13.63;9.65;;;5.50;99.90;;;;;;5044942;28;20049;-44
2022/01/24 01:36:07;;;;;;;15.85;10.57;;;5.50;99.90;;;;;;5051310;28;20148;-43
2022/01/24 01:39:00;;;;;;;16.33;11.40;;;5.50;99.90;;;;;;5050866;28;20049;-42
2022/01/24 01:52:47;;;;;;;18.90;12.57;;;5.50;99.90;;;;;;5051442;28;20044;-42
2022/01/24 01:55:25;;;;;;;19.50;12.85;;;5.40;99.90;;;;;;5049733;28;20065;-42
2022/01/24 01:57:55;;;;;;;19.35;13.15;;;5.50;99.90;;;;;;5050683;28;20473;-42
2022/01/24 02:00:22;;;;;;;19.92;13.38;;;5.50;99.90;;;;;;5046127;28;20140;-42
2022/01/24 02:02:49;;;;;;;19.33;13.68;;;5.50;99.90;;;;;;5049156;28;20057;-43
2022/01/24 02:05:16;;;;;;;22.00;15.00;;;5.40;99.90;;;;;;5037092;28;20049;-40
2022/01/24 02:07:48;;;;;;;23.88;14.85;;;5.50;99.90;;;;;;5044985;28;20076;-42
2022/01/24 02:10:14;;;;;;;23.23;14.35;;;5.40;99.90;;;;;;5049528;28;20071;-42
2022/01/24 02:12:41;;;;;;;23.65;15.40;;;5.50;99.90;;;;;;5046818;28;20124;-42
2022/01/24 02:15:10;;;;;;;23.83;14.93;;;5.40;99.90;;;;;;5045144;28;20481;-44
2022/01/24 02:17:47;;;;;;;24.95;16.25;;;5.40;99.90;;;;;;5045071;28;20059;-42
2022/01/24 02:20:37;;;;;;;23.58;15.50;;;5.40;99.90;;;;;;5043744;28;20080;-43
2022/01/24 02:23:19;;;;;;;28.45;16.52;;;5.40;99.90;;;;;;5040342;28;20055;-42
2022/01/24 02:25:46;;;;;;;27.85;17.00;;;5.40;99.90;;;;;;5041562;28;20045;-42
2022/01/24 02:28:15;;;;;;;25.17;16.33;;;5.50;99.90;;;;;;5047541;28;20106;-42
2022/01/24 02:30:56;;;;;;;27.35;16.88;;;5.40;99.90;;;;;;5044801;28;20464;-42
2022/01/24 02:33:23;;;;;;;27.63;17.50;;;5.40;99.90;;;;;;5045705;28;20484;-43
2022/01/24 02:35:49;;;;;;;27.08;16.75;;;5.40;99.90;;;;;;5050246;28;21369;-42
2022/01/24 02:38:28;;;;;;;26.00;17.35;;;5.40;99.90;;;;;;5050489;28;20131;-43
2022/01/24 02:49:08;;;;;;;27.08;17.45;;;5.40;99.90;;;;;;5041735;28;20124;-43
2022/01/24 02:51:46;;;;;;;27.60;18.63;;;5.40;99.90;;;;;;5045120;28;20053;-43
2022/01/24 02:54:21;;;;;;;26.48;17.58;;;5.40;99.90;;;;;;5050769;28;20544;-42
2022/01/24 02:56:48;;;;;;;25.90;17.25;;;5.40;99.90;;;;;;5051770;28;20560;-42
2022/01/24 02:59:14;;;;;;;26.77;16.95;;;5.40;99.90;;;;;;5044268;28;20056;-42
2022/01/24 03:01:41;;;;;;;27.58;18.27;;;5.40;99.90;;;;;;5050543;28;20049;-44
2022/01/24 03:04:08;;;;;;;27.98;18.25;;;5.40;99.90;;;;;;5054305;28;20085;-46
2022/01/24 03:06:35;;;;;;;31.27;19.15;;;5.40;99.90;;;;;;5047632;28;20583;-43
2022/01/24 03:09:02;;;;;;;27.25;18.02;;;5.40;99.90;;;;;;5055680;28;20048;-45
2022/01/24 03:11:52;;;;;;;29.40;18.63;;;5.40;99.90;;;;;;5052577;28;20057;-45
2022/01/24 03:14:17;;;;;;;25.33;18.02;;;5.40;99.90;;;;;;5049758;28;20478;-43
2022/01/24 03:16:44;;;;;;;26.40;18.63;;;5.40;99.90;;;;;;5051220;28;20135;-43
2022/01/24 03:19:10;;;;;;;24.42;16.55;;;5.40;99.90;;;;;;5054637;28;20128;-42
2022/01/24 03:21:37;;;;;;;28.00;17.83;;;5.40;99.90;;;;;;5047091;28;20045;-42
2022/01/24 03:24:04;;;;;;;27.05;17.90;;;5.40;99.90;;;;;;5054081;28;20135;-43
2022/01/24 03:26:32;;;;;;;30.05;18.48;;;5.40;99.90;;;;;;5052602;28;20106;-42
2022/01/24 03:28:59;;;;;;;25.92;17.73;;;5.40;99.90;;;;;;5046180;28;20056;-43
2022/01/24 03:31:26;;;;;;;25.35;17.70;;;5.40;99.90;;;;;;5054008;28;20485;-42
2022/01/24 03:33:52;;;;;;;25.25;18.45;;;5.40;99.90;;;;;;5052864;28;20040;-42
2022/01/24 03:36:19;;;;;;;26.10;17.08;;;5.40;99.90;;;;;;5053473;28;20127;-41
2022/01/24 03:38:46;;;;;;;26.38;17.75;;;5.40;99.90;;;;;;5053148;28;20059;-43
2022/01/24 03:41:12;;;;;;;23.15;16.40;;;5.40;99.90;;;;;;5052078;28;20045;-42
2022/01/24 03:43:41;;;;;;;24.80;17.00;;;5.30;99.90;;;;;;5048332;28;20049;-42
2022/01/24 03:46:13;;;;;;;25.25;17.13;;;5.40;99.90;;;;;;5047959;28;20049;-42
2022/01/24 03:48:43;;;;;;;26.85;18.10;;;5.40;99.90;;;;;;5048067;28;20056;-43
2022/01/24 03:51:10;;;;;;;24.90;16.85;;;5.40;99.90;;;;;;5053448;28;20409;-42
2022/01/24 03:53:37;;;;;;;23.88;17.25;;;5.30;99.90;;;;;;5053281;28;20128;-43
2022/01/24 03:56:04;;;;;;;24.80;17.70;;;5.40;99.90;;;;;;5049160;28;20059;-43
2022/01/24 03:58:31;;;;;;;25.13;17.52;;;5.40;99.90;;;;;;5051999;28;20049;-43
2022/01/24 04:00:59;;;;;;;25.00;17.10;;;5.50;99.90;;;;;;5052867;28;20394;-43
2022/01/24 04:03:26;;;;;;;25.27;17.58;;;5.40;99.90;;;;;;5053749;28;20045;-45
2022/01/24 04:05:53;;;;;;;25.38;15.60;;;5.30;99.90;;;;;;5053033;28;20466;-43
2022/01/24 04:08:20;;;;;;;24.50;15.77;;;5.40;99.90;;;;;;5040661;28;20057;-44
2022/01/24 04:10:50;;;;;;;24.35;16.70;;;5.30;99.90;;;;;;5053429;28;20141;-43
2022/01/24 04:13:28;;;;;;;22.42;16.15;;;5.30;99.90;;;;;;5049178;28;20060;-42
2022/01/24 04:16:24;;;;;;;24.95;16.05;;;5.30;99.90;;;;;;5053340;28;20056;-43
2022/01/24 04:18:58;;;;;;;23.75;16.30;;;5.30;99.90;;;;;;5045604;28;20045;-43
2022/01/24 04:21:27;;;;;;;25.52;16.67;;;5.30;99.90;;;;;;5045089;28;20386;-43
2022/01/24 04:23:59;;;;;;;22.85;15.65;;;5.30;99.90;;;;;;5047662;28;20064;-42
2022/01/24 04:26:26;;;;;;;20.75;15.35;;;5.30;99.90;;;;;;5048272;28;20299;-43
2022/01/24 04:28:53;;;;;;;22.70;15.95;;;5.30;99.90;;;;;;5050030;28;20132;-42
2022/01/24 04:31:20;;;;;;;22.02;15.32;;;5.30;99.90;;;;;;5049429;28;20556;-44
2022/01/24 04:33:46;;;;;;;19.27;14.02;;;5.30;99.90;;;;;;5053362;28;20040;-44
2022/01/24 04:36:15;;;;;;;25.67;15.45;;;5.30;99.90;;;;;;5047173;28;20049;-43
2022/01/24 04:38:42;;;;;;;20.95;14.38;;;5.30;99.90;;;;;;5036540;28;20049;-43
2022/01/24 04:41:16;;;;;;;19.15;13.02;;;5.30;99.90;;;;;;5047921;28;20138;-42
2022/01/24 04:43:55;;;;;;;21.73;14.90;;;5.30;99.90;;;;;;5045695;28;20467;-43
2022/01/24 04:46:45;;;;;;;18.67;13.60;;;5.30;99.90;;;;;;5045973;28;20087;-42
2022/01/24 04:52:12;;;;;;;16.83;12.10;;;5.30;99.90;;;;;;5040884;28;20053;-40
2022/01/24 04:54:42;;;;;;;17.25;12.13;;;5.30;99.90;;;;;;5051577;28;20464;-43
2022/01/24 04:57:09;;;;;;;18.98;12.63;;;5.20;99.90;;;;;;5050648;28;20049;-43
2022/01/24 04:59:36;;;;;;;19.00;13.18;;;5.30;99.90;;;;;;5048185;28;20152;-41
2022/01/24 05:02:03;;;;;;;16.15;11.57;;;5.30;99.90;;;;;;5051002;28;20072;-43
2022/01/24 05:04:29;;;;;;;19.42;11.57;;;5.30;99.90;;;;;;5047462;28;20055;-42
2022/01/24 05:06:57;;;;;;;16.83;12.73;;;5.30;99.90;;;;;;5047814;28;20063;-42
2022/01/24 05:09:25;;;;;;;19.42;13.07;;;5.30;99.90;;;;;;5052385;28;20132;-43
2022/01/24 05:11:57;;;;;;;19.38;12.85;;;5.30;99.90;;;;;;5049927;28;20413;-42
2022/01/24 05:25:22;;;;;;;16.08;11.02;;;5.30;99.90;;;;;;5048377;28;20374;-42
2022/01/24 05:27:48;;;;;;;19.42;13.90;;;5.30;99.90;;;;;;5051754;28;20055;-42
2022/01/24 05:30:16;;;;;;;19.00;13.20;;;5.30;99.90;;;;;;5045092;28;20420;-42
2022/01/24 05:32:43;;;;;;;21.45;14.50;;;5.30;99.90;;;;;;5050874;28;20053;-42
2022/01/24 05:35:10;;;;;;;19.50;13.85;;;5.30;99.90;;;;;;5051407;28;20056;-43
2022/01/24 05:37:38;;;;;;;19.48;13.65;;;5.30;99.90;;;;;;5051217;28;20382;-44
2022/01/24 05:40:06;;;;;;;21.48;14.65;;;5.30;99.90;;;;;;5047343;28;20055;-43
2022/01/24 05:42:33;;;;;;;24.92;16.88;;;5.30;99.90;;;;;;5045031;28;20091;-42
2022/01/24 05:44:59;;;;;;;30.08;18.40;;;5.30;99.90;;;;;;5045518;28;20059;-44
2022/01/24 05:47:26;;;;;;;30.48;19.33;;;5.30;99.90;;;;;;5050691;28;20044;-44
2022/01/24 05:49:53;;;;;;;35.08;22.05;;;5.30;99.90;;;;;;5048562;28;20055;-42
2022/01/24 05:52:19;;;;;;;30.75;19.85;;;5.30;99.90;;;;;;5047567;28;20520;-42
2022/01/24 05:54:47;;;;;;;25.35;17.23;;;5.30;99.90;;;;;;5048108;28;20124;-42
2022/01/24 05:57:14;;;;;;;30.48;18.40;;;5.30;99.90;;;;;;5042288;28;20486;-43
2022/01/24 05:59:41;;;;;;;29.17;19.25;;;5.30;99.90;;;;;;5049357;28;20067;-42
2022/01/24 06:02:07;;;;;;;27.85;18.75;;;5.30;99.90;;;;;;5044089;28;20053;-43
2022/01/24 06:04:34;;;;;;;27.73;17.80;;;5.30;99.90;;;;;;5050408;28;20500;-42
2022/01/24 06:07:01;;;;;;;27.83;16.63;;;5.30;99.90;;;;;;5047190;28;20049;-42
2022/01/24 06:09:27;;;;;;;27.15;18.20;;;5.30;99.90;;;;;;5050206;28;20049;-42
2022/01/24 06:11:55;;;;;;;29.00;18.02;;;5.30;99.90;;;;;;5048113;28;20060;-42
2022/01/24 06:14:22;;;;;;;26.45;17.20;;;5.30;99.90;;;;;;5042778;28;20048;-42
2022/01/24 06:16:49;;;;;;;26.27;17.80;;;5.30;99.90;;;;;;5045192;28;20049;-42
2022/01/24 06:19:16;;;;;;;28.92;18.58;;;5.30;99.90;;;;;;5051812;28;20049;-42
2022/01/24 06:21:44;;;;;;;28.27;17.75;;;5.30;99.90;;;;;;5043576;28;20123;-43
2022/01/24 06:24:11;;;;;;;34.38;20.30;;;5.30;99.90;;;;;;5039259;28;20506;-43
2022/01/24 06:26:38;;;;;;;35.67;20.48;;;5.30;99.90;;;;;;5054368;28;20041;-42
2022/01/24 06:29:06;;;;;;;36.08;22.08;;;5.30;99.90;;;;;;5054768;28;20473;-42
2022/01/24 06:31:32;;;;;;;38.60;23.08;;;5.30;99.90;;;;;;5046502;28;20049;-42
2022/01/24 06:33:59;;;;;;;34.60;22.05;;;5.30;99.90;;;;;;5054870;28;20107;-42
2022/01/24 06:36:26;;;;;;;36.17;23.02;;;5.30;99.90;;;;;;5050712;28;20045;-42
2022/01/24 06:38:52;;;;;;;34.58;21.58;;;5.30;99.90;;;;;;5051997;28;20405;-43
2022/01/24 06:41:24;;;;;;;38.03;23.40;;;5.40;99.90;;;;;;5046516;28;20049;-41
2022/01/24 06:43:51;;;;;;;39.80;24.48;;;5.30;99.90;;;;;;5045623;28;20072;-42
2022/01/24 06:46:19;;;;;;;39.38;23.95;;;5.30;99.90;;;;;;5047942;28;20053;-43
2022/01/24 06:48:46;;;;;;;43.83;26.08;;;5.30;99.90;;;;;;5052640;28;20544;-42
2022/01/24 06:51:13;;;;;;;44.17;26.92;;;5.30;99.90;;;;;;5050934;28;20048;-41
2022/01/24 06:53:39;;;;;;;45.35;27.52;;;5.30;99.90;;;;;;5022452;28;20063;-42
2022/01/24 06:56:06;;;;;;;43.58;26.15;;;5.30;99.90;;;;;;5051618;28;20052;-44
2022/01/24 06:58:33;;;;;;;51.15;30.38;;;5.30;99.90;;;;;;5051236;28;20147;-43
2022/01/24 07:01:00;;;;;;;53.70;31.17;;;5.30;99.90;;;;;;5044913;28;20312;-43
2022/01/24 07:03:28;;;;;;;52.35;30.85;;;5.30;99.90;;;;;;5045702;28;20041;-42
2022/01/24 07:05:54;;;;;;;59.45;32.75;;;5.20;99.90;;;;;;5044389;28;20147;-43
2022/01/24 07:08:21;;;;;;;57.83;32.75;;;5.30;99.90;;;;;;5047263;28;20047;-43
2022/01/24 07:10:48;;;;;;;64.22;35.58;;;5.30;99.90;;;;;;5051305;28;20115;-42
2022/01/24 07:13:14;;;;;;;61.28;33.85;;;5.30;99.90;;;;;;5046451;28;20144;-42
2022/01/24 07:15:47;;;;;;;65.13;35.63;;;5.30;99.90;;;;;;5056429;28;20052;-41
2022/01/24 07:18:57;;;;;;;66.30;38.35;;;5.20;99.90;;;;;;5049876;28;20479;-42
2022/01/24 07:21:05;;;;;;;69.07;38.20;;;5.20;99.90;;;;;;5045543;28;20485;-42
2022/01/24 07:23:32;;;;;;;74.57;39.72;;;5.30;99.90;;;;;;5048508;28;20044;-42
2022/01/24 07:25:59;;;;;;;74.95;40.47;;;5.20;99.90;;;;;;5046199;28;20049;-43
2022/01/24 07:28:25;;;;;;;75.65;40.88;;;5.20;99.90;;;;;;5052604;28;20140;-41
2022/01/24 07:30:52;;;;;;;79.50;41.90;;;5.30;99.90;;;;;;5056835;28;20408;-42
2022/01/24 07:33:19;;;;;;;79.65;41.63;;;5.20;99.90;;;;;;5054314;28;20136;-42
2022/01/24 07:35:45;;;;;;;76.60;41.97;;;5.20;99.90;;;;;;5051256;28;20051;-41
2022/01/24 07:38:13;;;;;;;81.43;43.03;;;5.20;99.90;;;;;;5047363;28;20045;-42
2022/01/24 07:40:42;;;;;;;78.32;40.88;;;5.20;99.90;;;;;;5050729;28;20049;-42
2022/01/24 07:43:11;;;;;;;79.13;42.15;;;5.30;99.90;;;;;;5053921;28;20052;-42
2022/01/24 07:45:38;;;;;;;75.70;39.60;;;5.20;99.90;;;;;;5052055;28;20059;-42
2022/01/24 07:48:05;;;;;;;84.40;45.35;;;5.20;99.90;;;;;;5052679;28;20080;-42
2022/01/24 07:50:33;;;;;;;86.97;46.08;;;5.20;99.90;;;;;;5053073;28;20127;-42
2022/01/24 07:53:03;;;;;;;89.38;47.33;;;5.20;99.90;;;;;;5053281;28;20051;-42
2022/01/24 07:55:31;;;;;;;90.70;48.42;;;5.20;99.90;;;;;;5046410;28;20061;-42
2022/01/24 07:57:58;;;;;;;92.57;48.42;;;5.30;99.90;;;;;;5052322;28;20080;-41
2022/01/24 08:00:24;;;;;;;92.55;49.38;;;5.20;99.90;;;;;;5051701;28;20574;-41
2022/01/24 08:02:51;;;;;;;92.65;50.97;;;5.30;99.90;;;;;;5050104;28;20049;-42
2022/01/24 08:05:18;;;;;;;100.75;51.63;;;5.30;99.90;;;;;;5053172;28;20053;-41
2022/01/24 08:07:45;;;;;;;98.30;52.45;;;5.30;99.90;;;;;;5047358;28;20075;-42
2022/01/24 08:10:11;;;;;;;98.60;51.83;;;5.30;99.90;;;;;;5043109;28;20140;-43
2022/01/24 08:12:42;;;;;;;97.70;51.53;;;5.30;99.90;;;;;;5043465;28;20474;-43
2022/01/24 08:15:11;;;;;;;99.50;51.53;;;5.30;99.90;;;;;;5051436;28;20063;-42
2022/01/24 08:17:38;;;;;;;96.22;49.90;;;5.30;99.90;;;;;;5048410;28;20064;-44
2022/01/24 08:20:06;;;;;;;100.72;51.55;;;5.30;99.90;;;;;;5044573;28;20519;-43
2022/01/24 08:22:33;;;;;;;96.10;49.08;;;5.30;99.90;;;;;;5051581;28;20084;-43
2022/01/24 08:25:03;;;;;;;104.72;52.47;;;5.30;99.90;;;;;;5044559;28;20050;-43
2022/01/24 08:27:29;;;;;;;103.03;53.75;;;5.30;99.90;;;;;;5050595;28;20127;-40
2022/01/24 08:29:58;;;;;;;111.88;55.92;;;5.30;99.90;;;;;;5052970;28;20048;-43
2022/01/24 08:32:24;;;;;;;106.00;53.70;;;5.30;99.90;;;;;;5046317;28;20055;-42
2022/01/24 08:34:51;;;;;;;104.78;51.92;;;5.30;99.90;;;;;;5051944;28;20565;-42
2022/01/24 08:37:18;;;;;;;100.68;52.85;;;5.30;99.90;;;;;;5048623;28;20052;-42
2022/01/24 08:39:45;;;;;;;97.43;52.20;;;5.30;99.90;;;;;;5045384;28;20063;-42
2022/01/24 08:42:16;;;;;;;100.60;54.97;;;5.30;99.90;;;;;;5042386;28;20072;-48
2022/01/24 08:47:30;;;;;;;94.28;50.83;;;5.30;99.90;;;;;;5042264;28;20081;-42
2022/01/24 08:49:58;;;;;;;90.30;48.38;;;5.40;99.90;;;;;;5049068;28;20049;-42
2022/01/24 08:52:25;;;;;;;98.15;51.60;;;5.30;99.90;;;;;;5044651;28;20417;-41
2022/01/24 08:54:52;;;;;;;94.85;50.72;;;5.30;99.90;;;;;;5052151;28;20041;-42
2022/01/24 08:57:21;;;;;;;98.68;51.60;;;5.40;99.90;;;;;;5038469;28;20053;-42
2022/01/24 08:59:48;;;;;;;96.80;52.53;;;5.40;99.90;;;;;;5048609;28;20130;-42
2022/01/24 09:02:15;;;;;;;92.05;50.95;;;5.40;99.90;;;;;;5045019;28;20075;-42
2022/01/24 09:04:43;;;;;;;94.88;51.58;;;5.40;99.90;;;;;;5048317;28;20057;-44
2022/01/24 09:07:10;;;;;;;93.18;50.03;;;5.40;99.90;;;;;;5040112;28;20071;-43
2022/01/24 09:09:36;;;;;;;95.07;49.05;;;5.50;99.90;;;;;;5050120;28;20055;-43
2022/01/24 09:12:04;;;;;;;99.03;52.88;;;5.50;99.90;;;;;;5049667;28;20075;-42
2022/01/24 09:14:31;;;;;;;94.75;50.25;;;5.50;99.90;;;;;;5050304;28;20135;-42
2022/01/24 09:16:57;;;;;;;85.22;48.35;;;5.50;99.90;;;;;;5050529;28;20128;-43
2022/01/24 09:19:24;;;;;;;92.13;51.33;;;5.50;99.90;;;;;;5049082;28;20129;-43
2022/01/24 09:21:52;;;;;;;96.00;51.70;;;5.50;99.90;;;;;;5050057;28;21509;-42
2022/01/24 09:24:19;;;;;;;93.53;50.63;;;5.50;99.90;;;;;;5050576;28;20048;-42
2022/01/24 09:26:45;;;;;;;89.93;49.80;;;5.50;99.90;;;;;;5046141;28;20392;-43
2022/01/24 09:29:12;;;;;;;90.40;51.10;;;5.50;99.90;;;;;;5042625;28;20053;-42
2022/01/24 09:31:39;;;;;;;94.28;52.53;;;5.50;99.90;;;;;;5044054;28;20056;-42
2022/01/24 09:34:05;;;;;;;91.63;50.40;;;5.50;99.90;;;;;;5051319;28;20398;-42
2022/01/24 09:36:32;;;;;;;83.10;46.90;;;5.50;99.90;;;;;;5044945;28;20053;-42
2022/01/24 09:39:00;;;;;;;93.95;50.75;;;5.60;99.90;;;;;;5052458;28;20053;-42
2022/01/24 09:41:27;;;;;;;90.25;48.97;;;5.50;99.90;;;;;;5050467;28;20057;-43
2022/01/24 09:43:54;;;;;;;93.30;52.45;;;5.60;99.90;;;;;;5042133;28;20128;-43
2022/01/24 09:46:20;;;;;;;84.43;47.33;;;5.50;99.90;;;;;;5051576;28;20408;-43
2022/01/24 09:48:47;;;;;;;96.07;52.55;;;5.60;99.90;;;;;;5042110;28;20045;-41
2022/01/24 09:51:14;;;;;;;97.75;53.40;;;5.60;99.90;;;;;;5046899;28;20045;-42
2022/01/24 09:53:41;;;;;;;88.72;48.40;;;5.60;99.90;;;;;;4994444;22;20484;-41
2022/01/24 09:56:09;;;;;;;97.10;52.80;;;5.60;99.90;;;;;;5028212;28;20106;-40
2022/01/24 09:58:37;;;;;;;97.85;54.45;;;5.60;99.90;;;;;;5033568;28;20076;-45
2022/01/24 10:01:04;;;;;;;92.63;52.85;;;5.60;99.90;;;;;;5044863;28;20059;-41
2022/01/24 10:03:31;;;;;;;92.20;52.47;;;5.60;99.90;;;;;;5031779;28;20081;-41
2022/01/24 10:05:58;;;;;;;92.38;51.70;;;5.60;99.90;;;;;;5031580;28;20053;-41
2022/01/24 10:08:25;;;;;;;94.50;52.45;;;5.60;99.90;;;;;;5042161;28;20120;-43
2022/01/24 10:10:55;;;;;;;95.30;53.28;;;5.60;99.90;;;;;;5043981;28;20152;-42
2022/01/24 10:16:25;;;;;;;87.32;50.95;;;5.60;99.90;;;;;;5049045;28;20090;-42
2022/01/24 10:19:01;;;;;;;93.03;51.63;;;5.60;99.90;;;;;;5042283;28;20045;-41
2022/01/24 10:21:27;;;;;;;95.30;51.63;;;5.60;99.90;;;;;;5041414;28;20057;-42
2022/01/24 10:23:55;;;;;;;88.07;49.80;;;5.60;99.90;;;;;;5045657;28;20497;-42
2022/01/24 10:26:21;;;;;;;95.15;52.13;;;5.60;99.90;;;;;;5045495;28;20053;-42
2022/01/24 10:28:50;;;;;;;89.45;49.50;;;5.50;99.90;;;;;;5048705;28;20049;-41
2022/01/24 10:31:18;;;;;;;84.28;48.67;;;5.60;99.90;;;;;;5047632;28;20049;-42
2022/01/24 10:34:01;;;;;;;82.50;48.63;;;5.60;99.90;;;;;;5049080;28;20049;-42
2022/01/24 10:36:39;;;;;;;82.55;48.47;;;5.60;99.90;;;;;;5044161;28;20044;-41
2022/01/24 10:39:31;;;;;;;88.13;47.67;;;5.60;99.90;;;;;;5043333;28;20520;-43
2022/01/24 10:42:46;;;;;;;82.50;47.53;;;5.60;99.90;;;;;;5045208;28;20092;-44
2022/01/24 10:45:15;;;;;;;84.60;47.95;;;5.60;99.90;;;;;;5026451;28;20503;-43
2022/01/24 10:47:46;;;;;;;91.80;48.38;;;5.60;99.90;;;;;;5046661;28;20492;-43
2022/01/24 10:50:19;;;;;;;78.28;45.95;;;5.60;99.90;;;;;;5048671;28;20063;-42
2022/01/24 10:52:46;;;;;;;81.10;47.47;;;5.60;99.90;;;;;;5044799;28;20153;-43
2022/01/24 10:55:15;;;;;;;76.57;46.13;;;5.60;99.90;;;;;;5039653;28;20077;-42
2022/01/24 10:57:41;;;;;;;77.43;46.88;;;5.70;99.90;;;;;;5025823;28;20049;-42
2022/01/24 11:00:10;;;;;;;71.38;42.75;;;5.70;99.90;;;;;;5047094;28;20472;-43
2022/01/24 11:02:40;;;;;;;78.65;45.58;;;5.70;99.90;;;;;;5046024;28;20048;-41
2022/01/24 11:05:14;;;;;;;76.95;44.35;;;5.70;99.90;;;;;;5047785;28;20055;-42
2022/01/24 11:07:51;;;;;;;78.90;45.47;;;5.70;99.90;;;;;;5042581;28;20107;-43
2022/01/24 11:10:18;;;;;;;77.93;45.38;;;5.60;99.90;;;;;;5044910;28;20060;-44
2022/01/24 11:12:45;;;;;;;76.53;45.28;;;5.70;99.90;;;;;;5046957;28;20052;-43
2022/01/24 11:15:11;;;;;;;73.68;42.80;;;5.70;99.90;;;;;;5052173;28;20136;-42
2022/01/24 11:17:40;;;;;;;74.93;43.90;;;5.70;99.90;;;;;;5053243;28;20044;-40
2022/01/24 11:20:11;;;;;;;84.22;45.03;;;5.70;99.90;;;;;;5047104;28;20049;-44
2022/01/24 11:22:42;;;;;;;81.25;47.53;;;5.70;99.90;;;;;;5045041;28;20040;-42
2022/01/24 11:25:09;;;;;;;76.80;46.05;;;5.70;99.90;;;;;;5047463;28;20451;-41
2022/01/24 11:27:36;;;;;;;76.22;44.65;;;5.70;99.90;;;;;;5042426;28;20051;-43
2022/01/24 11:30:07;;;;;;;78.13;45.20;;;5.70;99.90;;;;;;5045459;28;20137;-42
2022/01/24 11:32:36;;;;;;;74.47;44.63;;;5.70;99.90;;;;;;5049080;28;20392;-43
2022/01/24 11:35:05;;;;;;;75.10;44.25;;;5.80;99.90;;;;;;5041184;28;20409;-45
2022/01/24 11:37:35;;;;;;;78.35;43.83;;;5.70;99.90;;;;;;5043723;28;20057;-44
2022/01/24 11:40:02;;;;;;;72.45;43.33;;;5.70;99.90;;;;;;5052761;28;20049;-42
2022/01/24 11:42:30;;;;;;;75.38;44.75;;;5.80;99.90;;;;;;5045261;28;20556;-42
2022/01/24 11:45:02;;;;;;;80.22;46.10;;;5.80;99.90;;;;;;5043970;28;20049;-43
2022/01/24 11:47:31;;;;;;;75.35;44.17;;;5.80;99.90;;;;;;5049501;28;20052;-43
2022/01/24 11:49:58;;;;;;;71.13;43.42;;;5.80;99.90;;;;;;5047576;28;20728;-43
2022/01/24 11:52:32;;;;;;;73.25;44.85;;;5.80;99.90;;;;;;5048568;28;20067;-41
2022/01/24 11:55:13;;;;;;;78.07;44.85;;;5.70;99.90;;;;;;5049152;28;20045;-43
2022/01/24 11:57:40;;;;;;;75.30;45.42;;;5.80;99.90;;;;;;5047368;28;20052;-43
2022/01/24 12:00:21;;;;;;;79.05;47.40;;;5.80;99.90;;;;;;5045759;28;20124;-43
2022/01/24 12:02:49;;;;;;;79.82;46.50;;;5.80;99.90;;;;;;5045220;28;20096;-44
2022/01/24 12:05:17;;;;;;;77.80;47.03;;;5.70;99.90;;;;;;5038859;28;20049;-43
2022/01/24 12:07:46;;;;;;;75.47;45.85;;;5.80;99.90;;;;;;5041064;28;20048;-43
2022/01/24 12:10:36;;;;;;;81.13;49.22;;;5.80;99.90;;;;;;5052247;28;20088;-43
2022/01/24 12:13:04;;;;;;;73.85;46.50;;;5.80;99.90;;;;;;5048769;28;20078;-43
2022/01/24 12:16:03;;;;;;;77.22;46.97;;;5.80;99.90;;;;;;5045284;28;20056;-43
2022/01/24 12:18:50;;;;;;;72.20;44.03;;;5.80;99.90;;;;;;5044419;28;20478;-42
2022/01/24 12:21:17;;;;;;;73.43;44.42;;;5.80;99.90;;;;;;5041536;28;20500;-42
2022/01/24 12:23:46;;;;;;;71.25;43.97;;;5.80;99.90;;;;;;5049572;28;20141;-41
2022/01/24 12:26:22;;;;;;;77.40;46.35;;;5.80;99.90;;;;;;5049954;28;20528;-42
2022/01/24 12:28:49;;;;;;;69.70;43.83;;;5.80;99.90;;;;;;5052158;28;20061;-42
2022/01/24 12:31:21;;;;;;;72.47;44.33;;;5.80;99.90;;;;;;5045716;28;20401;-42
2022/01/24 12:34:13;;;;;;;64.00;41.75;;;5.80;99.90;;;;;;5045878;28;20072;-42
2022/01/24 12:37:00;;;;;;;67.80;43.20;;;5.90;99.90;;;;;;5032963;28;20099;-42
2022/01/24 12:39:34;;;;;;;68.75;42.80;;;5.90;99.90;;;;;;5049965;28;20049;-42
2022/01/24 12:42:03;;;;;;;63.78;41.25;;;5.90;99.90;;;;;;5042658;28;20086;-42
2022/01/24 12:47:17;;;;;;;65.40;41.97;;;5.80;99.90;;;;;;5042359;28;20053;-44
2022/01/24 12:49:45;;;;;;;65.00;43.00;;;5.80;99.90;;;;;;5042582;28;20052;-43
2022/01/24 12:52:13;;;;;;;68.13;44.78;;;5.80;99.90;;;;;;5044538;28;20056;-42
2022/01/24 12:54:41;;;;;;;65.10;43.00;;;5.80;99.90;;;;;;5048406;28;20055;-43
2022/01/24 12:57:09;;;;;;;64.13;41.25;;;5.90;99.90;;;;;;5049512;28;20044;-43
2022/01/24 12:59:36;;;;;;;59.65;39.95;;;5.80;99.90;;;;;;5045331;28;20041;-42
2022/01/24 13:02:04;;;;;;;60.67;39.75;;;5.80;99.90;;;;;;5041480;28;20152;-42
2022/01/24 13:04:32;;;;;;;62.53;41.60;;;5.80;99.90;;;;;;5045139;28;20052;-43
2022/01/24 13:06:58;;;;;;;56.78;38.33;;;5.80;99.90;;;;;;5046112;28;20149;-42
2022/01/24 13:09:25;;;;;;;59.28;39.13;;;5.90;99.90;;;;;;5042088;28;20113;-41
2022/01/24 13:11:54;;;;;;;60.50;39.83;;;5.90;99.90;;;;;;5044951;28;20128;-44
2022/01/24 13:14:25;;;;;;;63.33;40.58;;;5.80;99.90;;;;;;5049724;28;20049;-43
2022/01/24 13:22:29;;;;;;;60.65;40.33;;;5.80;99.90;;;;;;5044608;28;20477;-43
2022/01/24 13:25:09;;;;;;;59.90;39.78;;;5.80;99.90;;;;;;5046357;28;20045;-42
2022/01/24 13:27:39;;;;;;;60.95;39.85;;;5.80;99.90;;;;;;5048217;28;20049;-42
2022/01/24 13:30:08;;;;;;;50.38;35.75;;;5.80;99.90;;;;;;5049467;28;20061;-42
2022/01/24 13:32:49;;;;;;;52.38;35.40;;;5.80;99.90;;;;;;5050054;28;20055;-42
2022/01/24 13:35:17;;;;;;;51.85;34.85;;;5.80;99.90;;;;;;5043949;28;20053;-42
2022/01/24 13:37:43;;;;;;;54.20;36.45;;;5.80;99.90;;;;;;5041649;28;20497;-43
2022/01/24 13:40:11;;;;;;;54.15;36.28;;;5.80;99.90;;;;;;5038369;28;20055;-43
2022/01/24 13:42:39;;;;;;;56.55;37.30;;;5.80;99.90;;;;;;5042265;28;20053;-42
2022/01/24 13:45:06;;;;;;;47.33;34.50;;;5.80;99.90;;;;;;5045949;28;21403;-41
2022/01/24 13:47:33;;;;;;;45.33;32.20;;;5.80;99.90;;;;;;5051280;28;20048;-40
2022/01/24 13:49:59;;;;;;;49.42;35.47;;;5.70;99.90;;;;;;5049096;28;20051;-41
2022/01/24 13:52:28;;;;;;;51.03;34.20;;;5.70;99.90;;;;;;5039805;28;20148;-41
2022/01/24 13:54:54;;;;;;;48.03;35.50;;;5.70;99.90;;;;;;5048644;28;20055;-42
2022/01/24 13:57:21;;;;;;;49.97;35.17;;;5.70;99.90;;;;;;5037585;28;20123;-43